メインページ
METAR-TAF:

METAR-TAF

空港 :

コルドバ, アルゼンチン

緯度: 31-19S, 経度: 064-13W, 海抜: 484m

現時点の気象観測

当レポートは22分前の21:00(UTC)に作成
の風 11kt
気温 27°C
湿度 42%
気圧 1006 hPa
視程10km以上
高度2500ftの雲はほとんどない
高度20000ftの雲は散在している

METAR: SACO 202100Z 08011KT 9999 FEW025 SCT200 27/13 Q1006

時間: 18:22 (21:22 UTC)

予報

当レポートは4時間22分前の17:00(UTC)に作成
予報は20日の 18時(UTC)から 21日の 18時(UTC)まで有効
北/北東の風 15kt
視程10km以上
高度2500ftの雲は散在している
20日の 21時(UTC)から 21日の 00時(UTC)まで徐々に
の風 10kt
視程10km以上
高度3000ftの雲は散在している
高度4000ftの雲はほとんどない, 塔状積雲.
確率 30% :
21日の 03時(UTC)から 21日の 06時(UTC)まで一時的に
の風 20kt、最大30ktの突風を伴う
視程: 8000m
高度3000ftの曇り
高度3000ftの雲はほとんどない, 積乱雲.
近辺で激しい雷雨, 雨

TAF: SACO 201700Z 2018/2118 02015KT 9999 SCT025 TX29/2119Z TN12/2110Z BECMG 2021/2100 09010KT 9999 SCT030 FEW040TCU PROB30 TEMPO 2103/2106 18020G30KT 8000 VCTSRA OVC030 FEW030CB

4,000以上の空港の気象観測と天気予報(METAR報とTAF報)

利用可能な観測所は地図上に黄色い丸と赤い丸で示す。

丸の上にカーソルを重ねると観測所名を参照できる。

次にクリックすると気象観測と天気予報を参照できる。

マップの切り替え:黒色「×」印の緑ボタンをクリックして拡大、「-」印の緑ボタンをクリックして縮小、緑色の三角印をクリックして隣りの地図に切り替え


METAR-TAF: